Kealia, Hawaii
Current Conditions -  °F | °C
As of 3:53 PM on Sunday 25 Jan 2015 (Local Time) from PHLI Reporting Station
Overcast Overcast  
Wind Chill: 74°   Ceiling: 4900
Heat Index: 74°   Visibility: 10mi
Dew Point: 56°   Wind: 18mph
Humidity: 53%   Direction: 40°NE
Pressure: 30.02"   Gusts: 24mph
Location:  22.09°N, 159.44°W
Report Text: PHLI 260153Z 04016G21KT 10SM SCT038 OVC049 23/13 A3002 RMK AO2 SLP164 T02330133 $
Loading
Personal Weather Stations






























Interactive Weather Map New forecast layout! Learn more

10-Day Weather Forecast

Advertisements
Track Severe Weather on mobile